Terminal Aerodrome Forecast
Issued by NWS

Home | Current Version | Previous Version | Text Only | Print | Product List | Glossary On
Versions: 1 2 3 4 5 6 7 8 9 10 11 12 13 14 15 16 17
000
FTUS46 KLOX 200807 AAA
TAFSBP
TAF AMD
KSBP 200807Z 2008/2106 33006KT P6SM OVC008
     FM201000 15005KT P6SM VCSH OVC012
     FM201400 32014G22KT P6SM SCT025 SCT040
     FM202000 32023G35KT P6SM SCT250
     FM210200 31015G25KT P6SM SCT250
     FM210400 31010KT P6SM SCT250=

USA.gov is the U.S. government's official web portal to all federal, state and local government web resources and services.